createdAt,value
2023-03-17T00:00:01.721Z,50.2
2023-03-17T00:01:18.000Z,49.4
2023-03-17T00:02:34.299Z,49.4
2023-03-17T00:03:50.607Z,52.8
2023-03-17T00:05:06.894Z,51
2023-03-17T00:06:23.183Z,49.4
2023-03-17T00:07:39.478Z,50.4
2023-03-17T00:08:55.766Z,51.2
2023-03-17T00:10:12.065Z,50.1
2023-03-17T00:11:28.357Z,49.6
2023-03-17T00:12:44.660Z,50.5
2023-03-17T00:14:00.948Z,50.7
2023-03-17T00:15:17.238Z,49.7
2023-03-17T00:16:32.553Z,51
2023-03-17T00:17:48.847Z,53.6
2023-03-17T00:19:05.145Z,51
2023-03-17T00:20:21.437Z,48.9
2023-03-17T00:21:37.736Z,49.4
2023-03-17T00:22:54.035Z,51.2
2023-03-17T00:24:10.325Z,50.5
2023-03-17T00:25:26.616Z,53
2023-03-17T00:26:42.907Z,49.4
2023-03-17T00:27:59.212Z,51.7
2023-03-17T00:29:15.507Z,50.1
2023-03-17T00:30:31.799Z,51
2023-03-17T00:31:48.090Z,49.4
2023-03-17T00:33:03.403Z,49.9
2023-03-17T00:34:19.694Z,50.5
2023-03-17T00:35:35.993Z,51
2023-03-17T00:36:52.279Z,50.4
2023-03-17T00:38:08.575Z,49.9
2023-03-17T00:39:24.871Z,52
2023-03-17T00:40:41.168Z,51.2
2023-03-17T00:41:57.466Z,50.4
2023-03-17T00:43:13.752Z,50.1
2023-03-17T00:44:30.051Z,49.4
2023-03-17T00:45:46.343Z,53
2023-03-17T00:47:02.636Z,49.6
2023-03-17T00:48:18.940Z,51.2
2023-03-17T00:49:34.243Z,51.4
2023-03-17T00:50:50.535Z,50.4
2023-03-17T00:52:06.823Z,49.4
2023-03-17T00:53:23.121Z,49.9
2023-03-17T00:54:39.413Z,52
2023-03-17T00:55:55.724Z,50.1
2023-03-17T00:57:12.008Z,51.4
2023-03-17T00:58:28.296Z,50.4
2023-03-17T00:59:44.600Z,50.4
2023-03-17T01:01:00.888Z,49.6
2023-03-17T01:02:17.188Z,50.1
2023-03-17T01:03:33.481Z,50.2
2023-03-17T01:04:49.785Z,49.9
2023-03-17T01:06:06.196Z,50.9
2023-03-17T01:07:22.483Z,50.2
2023-03-17T01:08:38.775Z,49.9
2023-03-17T01:09:55.000Z,50.5
2023-03-17T01:11:11.362Z,53.4
2023-03-17T01:12:27.659Z,48.5
2023-03-17T01:13:43.964Z,48.6
2023-03-17T01:15:00.254Z,49.9
2023-03-17T01:16:16.549Z,49.7
2023-03-17T01:17:32.844Z,49.9
2023-03-17T01:18:49.139Z,49.3
2023-03-17T01:20:05.424Z,48.8
2023-03-17T01:21:21.726Z,48.9
2023-03-17T01:22:37.033Z,49.4
2023-03-17T01:23:53.327Z,48.6
2023-03-17T01:25:09.616Z,49.3
2023-03-17T01:26:25.918Z,50.1
2023-03-17T01:27:42.215Z,48.9
2023-03-17T01:28:58.506Z,48.9
2023-03-17T01:30:14.796Z,48.9
2023-03-17T01:31:31.098Z,49.9
2023-03-17T01:32:47.395Z,48.6
2023-03-17T01:34:03.693Z,50.4
2023-03-17T01:35:19.979Z,49.6
2023-03-17T01:36:36.268Z,49.4
2023-03-17T01:37:52.565Z,48.5
2023-03-17T01:39:07.881Z,48.3
2023-03-17T01:40:24.173Z,48.6
2023-03-17T01:41:40.470Z,48.9
2023-03-17T01:42:56.750Z,50.2
2023-03-17T01:44:13.049Z,49.4
2023-03-17T01:45:29.344Z,48.8
2023-03-17T01:46:45.645Z,50.1
2023-03-17T01:48:01.952Z,50.7
2023-03-17T01:49:18.236Z,50.7
2023-03-17T01:50:34.522Z,51
2023-03-17T01:51:50.813Z,50.2
2023-03-17T01:53:07.123Z,49.6
2023-03-17T01:54:23.415Z,50.2
2023-03-17T01:55:38.720Z,49.9
2023-03-17T01:56:55.015Z,49.6
2023-03-17T01:58:11.314Z,49.9
2023-03-17T01:59:27.595Z,51
2023-03-17T02:00:43.894Z,50.5
2023-03-17T02:02:00.193Z,49.9
2023-03-17T02:03:16.477Z,48.6
2023-03-17T02:04:32.773Z,49.6
2023-03-17T02:05:49.081Z,49.7
2023-03-17T02:07:05.366Z,48.9
2023-03-17T02:08:21.658Z,49.9
2023-03-17T02:09:37.954Z,50.4
2023-03-17T02:10:54.261Z,50.2
2023-03-17T02:12:09.566Z,51
2023-03-17T02:13:25.868Z,49.4
2023-03-17T02:14:42.156Z,48.9
2023-03-17T02:15:58.452Z,50.1
2023-03-17T02:17:14.730Z,49.1
2023-03-17T02:18:31.027Z,50.4
2023-03-17T02:19:47.333Z,51.5
2023-03-17T02:21:03.616Z,48.8
2023-03-17T02:22:19.911Z,49.3
2023-03-17T02:23:36.213Z,51
2023-03-17T02:24:52.506Z,50.1
2023-03-17T02:26:08.810Z,49.9
2023-03-17T02:27:25.093Z,49.3
2023-03-17T02:28:40.400Z,50.4
2023-03-17T02:29:56.703Z,48.9
2023-03-17T02:31:12.998Z,49.9
2023-03-17T02:32:29.281Z,49.7
2023-03-17T02:33:45.571Z,50.2
2023-03-17T02:35:01.879Z,49.6
2023-03-17T02:36:18.166Z,49.9
2023-03-17T02:37:34.474Z,56.2
2023-03-17T02:38:50.755Z,48.5
2023-03-17T02:40:07.058Z,49.4
2023-03-17T02:41:23.361Z,49.7
2023-03-17T02:42:39.656Z,52.5
2023-03-17T02:43:55.937Z,49.6
2023-03-17T02:45:11.244Z,49.7
2023-03-17T02:46:27.536Z,49.6
2023-03-17T02:47:43.831Z,49.9
2023-03-17T02:49:00.127Z,52
2023-03-17T02:50:16.421Z,50.7
2023-03-17T02:51:32.720Z,53
2023-03-17T02:52:49.012Z,50.4
2023-03-17T02:54:05.305Z,49.3
2023-03-17T02:55:21.615Z,50.2
2023-03-17T02:56:37.907Z,49.6
2023-03-17T02:57:54.198Z,50.1
2023-03-17T02:59:10.490Z,49.4
2023-03-17T03:00:26.772Z,50.4
2023-03-17T03:01:42.088Z,49.1
2023-03-17T03:02:58.387Z,50.1
2023-03-17T03:04:14.677Z,51
2023-03-17T03:05:30.983Z,51.7
2023-03-17T03:06:47.273Z,51
2023-03-17T03:08:03.565Z,50.4
2023-03-17T03:09:19.860Z,49.4
2023-03-17T03:10:36.149Z,49.4
2023-03-17T03:11:52.442Z,49.6
2023-03-17T03:13:08.732Z,51
2023-03-17T03:14:25.033Z,50.7
2023-03-17T03:15:41.323Z,51.7
2023-03-17T03:16:57.616Z,50.7
2023-03-17T03:18:12.930Z,49.3
2023-03-17T03:19:29.230Z,49.9
2023-03-17T03:20:45.520Z,51.2
2023-03-17T03:22:01.810Z,51
2023-03-17T03:23:18.105Z,50.2
2023-03-17T03:24:34.402Z,49.9
2023-03-17T03:25:50.694Z,49.7
2023-03-17T03:27:06.986Z,49.1
2023-03-17T03:28:23.280Z,49.6
2023-03-17T03:29:39.580Z,51
2023-03-17T03:30:55.888Z,50.4
2023-03-17T03:32:12.164Z,50.4
2023-03-17T03:33:28.458Z,50.7
2023-03-17T03:34:43.768Z,50.1
2023-03-17T03:36:00.067Z,51.4
2023-03-17T03:37:16.365Z,51.8
2023-03-17T03:38:32.653Z,52.8
2023-03-17T03:39:48.952Z,49.7
2023-03-17T03:41:05.242Z,51.5
2023-03-17T03:42:20.561Z,51
2023-03-17T03:43:36.860Z,50.7
2023-03-17T03:44:53.163Z,49.9
2023-03-17T03:46:09.450Z,49.9
2023-03-17T03:47:25.745Z,50.7
2023-03-17T03:48:42.029Z,49.9
2023-03-17T03:49:58.325Z,49.3
2023-03-17T03:51:14.628Z,51
2023-03-17T03:52:30.916Z,52.2
2023-03-17T03:53:47.205Z,51
2023-03-17T03:55:03.509Z,51
2023-03-17T03:56:19.795Z,52.3
2023-03-17T03:57:36.088Z,52.5
2023-03-17T03:58:51.398Z,50.4
2023-03-17T04:00:07.693Z,49.9
2023-03-17T04:01:23.988Z,49.9
2023-03-17T04:02:40.285Z,52.2
2023-03-17T04:03:56.587Z,61
2023-03-17T04:05:12.870Z,50.9
2023-03-17T04:06:29.177Z,50.4
2023-03-17T04:07:45.469Z,51.8
2023-03-17T04:09:01.766Z,52
2023-03-17T04:10:18.057Z,51.2
2023-03-17T04:11:34.343Z,50.2
2023-03-17T04:12:50.642Z,53.9
2023-03-17T04:14:06.938Z,50.4
2023-03-17T04:15:22.247Z,49.7
2023-03-17T04:16:38.549Z,52.3
2023-03-17T04:17:54.830Z,49.9
2023-03-17T04:19:11.137Z,49.3
2023-03-17T04:20:27.436Z,50.5
2023-03-17T04:21:43.719Z,50.5
2023-03-17T04:23:00.006Z,49.9
2023-03-17T04:24:16.314Z,51
2023-03-17T04:25:32.603Z,52
2023-03-17T04:26:48.897Z,52.5
2023-03-17T04:28:05.201Z,51.4
2023-03-17T04:29:21.481Z,51.2
2023-03-17T04:30:37.785Z,51
2023-03-17T04:31:53.096Z,51.2
2023-03-17T04:33:09.377Z,52
2023-03-17T04:34:25.689Z,53.4
2023-03-17T04:35:41.967Z,53.3
2023-03-17T04:36:58.266Z,52.5
2023-03-17T04:38:14.559Z,52.5
2023-03-17T04:39:30.868Z,53.4
2023-03-17T04:40:47.153Z,51.4
2023-03-17T04:42:03.441Z,51.7
2023-03-17T04:43:19.737Z,51.2
2023-03-17T04:44:36.037Z,53
2023-03-17T04:45:52.282Z,53.3
2023-03-17T04:47:08.579Z,52
2023-03-17T04:48:23.875Z,52
2023-03-17T04:49:40.180Z,51.8
2023-03-17T04:50:56.416Z,52
2023-03-17T04:52:12.658Z,53.4
2023-03-17T04:53:28.959Z,51.5
2023-03-17T04:54:45.258Z,52
2023-03-17T04:56:01.509Z,52.3
2023-03-17T04:57:17.741Z,53.4
2023-03-17T04:58:33.986Z,55.4
2023-03-17T04:59:50.233Z,52.3
2023-03-17T05:01:06.466Z,53.3
2023-03-17T05:02:22.708Z,53.1
2023-03-17T05:03:38.947Z,52.3
2023-03-17T05:04:54.199Z,59.2
2023-03-17T05:06:10.442Z,51.5
2023-03-17T05:07:26.678Z,51.4
2023-03-17T05:08:42.918Z,54.4
2023-03-17T05:09:59.166Z,51
2023-03-17T05:11:15.415Z,52.2
2023-03-17T05:12:31.641Z,50.9
2023-03-17T05:13:47.882Z,53.6
2023-03-17T05:15:04.125Z,54.1
2023-03-17T05:16:20.364Z,52.5
2023-03-17T05:17:36.611Z,55.2
2023-03-17T05:18:52.846Z,50.4
2023-03-17T05:20:09.096Z,52.3
2023-03-17T05:21:24.341Z,51.8
2023-03-17T05:22:40.578Z,51
2023-03-17T05:23:56.828Z,52
2023-03-17T05:25:13.077Z,53.1
2023-03-17T05:26:29.306Z,51.4
2023-03-17T05:27:45.547Z,55.5
2023-03-17T05:29:01.781Z,54.4
2023-03-17T05:30:18.041Z,54.4
2023-03-17T05:31:34.261Z,54.7
2023-03-17T05:32:50.503Z,53.1
2023-03-17T05:34:06.746Z,53.4
2023-03-17T05:35:22.988Z,52.5
2023-03-17T05:36:39.230Z,53
2023-03-17T05:37:54.489Z,60.9
2023-03-17T05:39:10.727Z,56
2023-03-17T05:40:26.966Z,52.5
2023-03-17T05:41:43.211Z,54.1
2023-03-17T05:42:59.456Z,53
2023-03-17T05:44:15.688Z,52.2
2023-03-17T05:45:31.924Z,52.6
2023-03-17T05:46:48.169Z,53
2023-03-17T05:48:04.405Z,52.2
2023-03-17T05:49:20.657Z,51
2023-03-17T05:50:36.896Z,52.8
2023-03-17T05:51:53.138Z,52
2023-03-17T05:53:09.369Z,52
2023-03-17T05:54:24.632Z,51
2023-03-17T05:55:40.868Z,52.5
2023-03-17T05:56:57.120Z,55.1
2023-03-17T05:58:13.343Z,52.5
2023-03-17T05:59:29.585Z,53
2023-03-17T06:00:45.840Z,53.9
2023-03-17T06:02:02.081Z,53.4
2023-03-17T06:03:18.306Z,53.1
2023-03-17T06:04:34.549Z,52.6
2023-03-17T06:05:50.788Z,53.4
2023-03-17T06:07:07.037Z,52.3
2023-03-17T06:08:23.279Z,53.6
2023-03-17T06:09:39.513Z,52
2023-03-17T06:10:54.767Z,52.2
2023-03-17T06:12:11.008Z,52.5
2023-03-17T06:13:27.000Z,52.5
2023-03-17T06:14:43.496Z,52
2023-03-17T06:15:59.736Z,51.8
2023-03-17T06:17:15.972Z,51.8
2023-03-17T06:18:32.211Z,52
2023-03-17T06:19:48.463Z,54.1
2023-03-17T06:21:04.692Z,51.4
2023-03-17T06:22:20.929Z,53.1
2023-03-17T06:23:37.176Z,52.5
2023-03-17T06:24:53.419Z,52
2023-03-17T06:26:09.663Z,51
2023-03-17T06:27:24.913Z,52.6
2023-03-17T06:28:41.151Z,51.8
2023-03-17T06:29:57.405Z,53.4
2023-03-17T06:31:13.627Z,52
2023-03-17T06:32:29.888Z,51.7
2023-03-17T06:33:46.109Z,51.8
2023-03-17T06:35:02.356Z,53
2023-03-17T06:36:18.598Z,54.7
2023-03-17T06:37:34.832Z,53.9
2023-03-17T06:38:51.079Z,54.4
2023-03-17T06:40:07.310Z,51
2023-03-17T06:41:23.550Z,51.8
2023-03-17T06:42:39.792Z,51.5
2023-03-17T06:43:55.054Z,54.9
2023-03-17T06:45:11.287Z,54.3
2023-03-17T06:46:27.533Z,52.6
2023-03-17T06:47:43.786Z,51.8
2023-03-17T06:49:00.008Z,51.2
2023-03-17T06:50:16.252Z,50.5
2023-03-17T06:51:32.489Z,51.8
2023-03-17T06:52:48.745Z,51.5
2023-03-17T06:54:04.986Z,51.5
2023-03-17T06:55:21.214Z,50.9
2023-03-17T06:56:37.455Z,59.6
2023-03-17T06:57:53.699Z,61.2
2023-03-17T06:59:09.936Z,51.7
2023-03-17T07:00:25.190Z,51.7
2023-03-17T07:01:41.439Z,50.7
2023-03-17T07:02:57.670Z,51
2023-03-17T07:04:13.920Z,49.9
2023-03-17T07:05:30.152Z,49.4
2023-03-17T07:06:46.390Z,51.2
2023-03-17T07:08:02.649Z,47.3
2023-03-17T07:09:18.889Z,50.2
2023-03-17T07:10:35.111Z,50.2
2023-03-17T07:11:51.355Z,49.9
2023-03-17T07:13:07.596Z,51.5
2023-03-17T07:14:23.846Z,49.1
2023-03-17T07:15:40.069Z,48.9
2023-03-17T07:16:55.327Z,47.2
2023-03-17T07:18:11.566Z,48.8
2023-03-17T07:19:27.806Z,48.9
2023-03-17T07:20:44.046Z,49.6
2023-03-17T07:22:00.285Z,48
2023-03-17T07:23:16.533Z,49.7
2023-03-17T07:24:32.777Z,48.6
2023-03-17T07:25:49.004Z,48.9
2023-03-17T07:27:05.260Z,48.9
2023-03-17T07:28:21.488Z,50.7
2023-03-17T07:29:37.723Z,59.4
2023-03-17T07:30:53.981Z,48.5
2023-03-17T07:32:10.206Z,48.6
2023-03-17T07:33:25.468Z,52.5
2023-03-17T07:34:41.699Z,48.3
2023-03-17T07:35:57.958Z,48.6
2023-03-17T07:37:14.186Z,47.2
2023-03-17T07:38:30.433Z,49.4
2023-03-17T07:39:46.667Z,48.1
2023-03-17T07:41:02.901Z,48.3
2023-03-17T07:42:19.145Z,47.6
2023-03-17T07:43:35.389Z,50.5
2023-03-17T07:44:51.640Z,48.3
2023-03-17T07:46:07.868Z,48.3
2023-03-17T07:47:24.100Z,48.6
2023-03-17T07:48:40.344Z,49.7
2023-03-17T07:49:55.607Z,49.9
2023-03-17T07:51:11.840Z,48
2023-03-17T07:52:28.086Z,48.5
2023-03-17T07:53:44.321Z,58
2023-03-17T07:55:00.570Z,47.5
2023-03-17T07:56:16.806Z,49.3
2023-03-17T07:57:32.066Z,48.5
2023-03-17T07:58:48.303Z,48
2023-03-17T08:00:04.551Z,47.5
2023-03-17T08:01:20.781Z,47.6
2023-03-17T08:02:37.029Z,46.5
2023-03-17T08:03:53.261Z,47.5
2023-03-17T08:05:09.501Z,50.5
2023-03-17T08:06:25.732Z,46.8
2023-03-17T08:07:41.982Z,51.4
2023-03-17T08:08:58.213Z,46.4
2023-03-17T08:10:14.462Z,48.6
2023-03-17T08:11:30.692Z,46.8
2023-03-17T08:12:46.931Z,46.2
2023-03-17T08:14:02.185Z,46.5
2023-03-17T08:15:18.434Z,46.4
2023-03-17T08:16:34.669Z,47.2
2023-03-17T08:17:50.910Z,47.2
2023-03-17T08:19:07.151Z,46.4
2023-03-17T08:20:23.400Z,46.7
2023-03-17T08:21:39.638Z,46.2
2023-03-17T08:22:55.863Z,47.2
2023-03-17T08:24:12.119Z,48.5
2023-03-17T08:25:28.350Z,46.8
2023-03-17T08:26:44.592Z,48.1
2023-03-17T08:28:00.831Z,45.7
2023-03-17T08:29:17.078Z,47
2023-03-17T08:30:33.424Z,47.3
2023-03-17T08:31:49.669Z,50.7
2023-03-17T08:34:22.148Z,47
2023-03-17T08:35:38.391Z,48.6
2023-03-17T08:36:54.625Z,46.7
2023-03-17T08:38:10.867Z,44.7
2023-03-17T08:39:27.107Z,44.6
2023-03-17T08:40:43.344Z,48.9
2023-03-17T08:41:59.599Z,49.3
2023-03-17T08:43:15.821Z,52
2023-03-17T08:44:32.076Z,50.9
2023-03-17T08:45:48.314Z,50.1
2023-03-17T08:47:03.579Z,50.2
2023-03-17T08:48:19.806Z,48
2023-03-17T08:49:36.052Z,49.7
2023-03-17T08:50:52.280Z,48.3
2023-03-17T08:52:08.520Z,49.1
2023-03-17T08:53:24.762Z,48.3
2023-03-17T08:54:41.002Z,48.9
2023-03-17T08:55:57.247Z,48.9
2023-03-17T08:57:13.476Z,48.8
2023-03-17T08:58:29.726Z,45.4
2023-03-17T08:59:45.958Z,44.3
2023-03-17T09:01:02.211Z,45.6
2023-03-17T09:02:18.436Z,45.1
2023-03-17T09:03:33.709Z,48.9
2023-03-17T09:04:49.945Z,45.6
2023-03-17T09:06:06.170Z,44.9
2023-03-17T09:07:22.415Z,45.7
2023-03-17T09:08:38.654Z,46.7
2023-03-17T09:09:54.902Z,45.7
2023-03-17T09:11:11.131Z,45.7
2023-03-17T09:12:27.374Z,45.4
2023-03-17T09:13:43.623Z,47.3
2023-03-17T09:14:59.853Z,45.7
2023-03-17T09:16:16.097Z,44.3
2023-03-17T09:17:32.334Z,44.6
2023-03-17T09:18:48.570Z,47.6
2023-03-17T09:20:03.832Z,46
2023-03-17T09:21:20.070Z,46.7
2023-03-17T09:22:36.306Z,50.4
2023-03-17T09:23:52.548Z,44.9
2023-03-17T09:25:08.783Z,54.7
2023-03-17T09:26:25.040Z,43.9
2023-03-17T09:27:41.265Z,43.9
2023-03-17T09:28:57.501Z,45.2
2023-03-17T09:30:13.742Z,47
2023-03-17T09:31:29.985Z,46.7
2023-03-17T09:32:46.237Z,44.9
2023-03-17T09:34:02.471Z,46
2023-03-17T09:35:18.703Z,45.1
2023-03-17T09:36:33.959Z,46.8
2023-03-17T09:37:50.000Z,46.2
2023-03-17T09:39:06.446Z,44.9
2023-03-17T09:40:22.677Z,44.3
2023-03-17T09:41:38.918Z,42.3
2023-03-17T09:42:55.157Z,45.2
2023-03-17T09:44:11.413Z,44.6
2023-03-17T09:45:27.651Z,47.6
2023-03-17T09:46:43.883Z,46.2
2023-03-17T09:48:00.133Z,48.6
2023-03-17T09:49:16.371Z,45.2
2023-03-17T09:50:32.605Z,45.1
2023-03-17T09:51:48.841Z,45.9
2023-03-17T09:53:04.106Z,44.7
2023-03-17T09:54:20.332Z,44.4
2023-03-17T09:55:36.580Z,44.3
2023-03-17T09:56:52.819Z,44.3
2023-03-17T09:58:09.052Z,44.6
2023-03-17T09:59:25.297Z,47.8
2023-03-17T10:00:41.533Z,50.4
2023-03-17T10:01:57.774Z,48.5
2023-03-17T10:03:14.021Z,44.7
2023-03-17T10:04:30.260Z,45.1
2023-03-17T10:05:46.494Z,44.6
2023-03-17T10:07:02.746Z,46.5
2023-03-17T10:08:18.981Z,44.3
2023-03-17T10:09:34.232Z,44.7
2023-03-17T10:10:50.477Z,44.3
2023-03-17T10:12:06.716Z,44.6
2023-03-17T10:13:22.951Z,45.6
2023-03-17T10:14:39.191Z,53.6
2023-03-17T10:15:55.431Z,45.2
2023-03-17T10:17:11.671Z,45.2
2023-03-17T10:18:27.920Z,49.4
2023-03-17T10:19:44.159Z,43.8
2023-03-17T10:21:00.393Z,44.7
2023-03-17T10:22:16.624Z,46.8
2023-03-17T10:23:32.869Z,44.3
2023-03-17T10:24:49.110Z,43.8
2023-03-17T10:26:04.372Z,44.4
2023-03-17T10:27:20.604Z,44.3
2023-03-17T10:28:36.857Z,44.1
2023-03-17T10:29:53.080Z,43.8
2023-03-17T10:31:09.317Z,44.7
2023-03-17T10:32:25.562Z,44.1
2023-03-17T10:33:41.819Z,44.3
2023-03-17T10:34:58.039Z,49.9
2023-03-17T10:36:14.278Z,44.7
2023-03-17T10:37:30.534Z,45.4
2023-03-17T10:38:46.757Z,45.4
2023-03-17T10:40:03.008Z,44.3
2023-03-17T10:41:19.249Z,48.9
2023-03-17T10:42:34.507Z,46.5
2023-03-17T10:43:50.733Z,46.7
2023-03-17T10:45:06.981Z,44.3
2023-03-17T10:46:23.212Z,44.4
2023-03-17T10:47:39.472Z,44.3
2023-03-17T10:48:55.700Z,44.1
2023-03-17T10:50:11.952Z,46.8
2023-03-17T10:51:28.189Z,44.3
2023-03-17T10:52:44.414Z,44.3
2023-03-17T10:54:00.672Z,44.6
2023-03-17T10:55:16.894Z,44.9
2023-03-17T10:56:33.131Z,43.8
2023-03-17T10:57:49.378Z,48.3
2023-03-17T10:59:04.636Z,47.3
2023-03-17T11:00:20.879Z,44.3
2023-03-17T11:01:37.124Z,44.9
2023-03-17T11:02:53.352Z,44.3
2023-03-17T11:04:09.597Z,44.4
2023-03-17T11:05:25.835Z,44.1
2023-03-17T11:06:42.071Z,44.3
2023-03-17T11:07:58.307Z,46.7
2023-03-17T11:09:14.555Z,44.6
2023-03-17T11:10:30.795Z,44.4
2023-03-17T11:11:47.032Z,47.5
2023-03-17T11:13:03.273Z,47.5
2023-03-17T11:14:19.514Z,47.2
2023-03-17T11:15:34.783Z,48.3
2023-03-17T11:16:51.018Z,45.6
2023-03-17T11:18:07.253Z,46.2
2023-03-17T11:19:23.501Z,48.6
2023-03-17T11:20:39.723Z,47.3
2023-03-17T11:21:55.968Z,47.5
2023-03-17T11:23:12.206Z,47.3
2023-03-17T11:24:28.460Z,47.2
2023-03-17T11:25:44.686Z,47
2023-03-17T11:27:00.923Z,47.2
2023-03-17T11:28:17.170Z,48
2023-03-17T11:29:33.415Z,48
2023-03-17T11:30:49.639Z,48.1
2023-03-17T11:32:04.896Z,48
2023-03-17T11:33:21.150Z,47.2
2023-03-17T11:34:37.000Z,46.7
2023-03-17T11:35:53.622Z,47.3
2023-03-17T11:37:09.874Z,48
2023-03-17T11:38:26.096Z,48.6
2023-03-17T11:39:42.337Z,47.6
2023-03-17T11:40:58.597Z,47.3
2023-03-17T11:42:14.818Z,45.6
2023-03-17T11:43:31.064Z,49.9
2023-03-17T11:44:47.290Z,45.7
2023-03-17T11:46:03.540Z,45.4
2023-03-17T11:47:19.771Z,46.2
2023-03-17T11:48:35.035Z,46.5
2023-03-17T11:49:51.284Z,47.8
2023-03-17T11:51:07.530Z,46.8
2023-03-17T11:52:23.757Z,46.2
2023-03-17T11:53:40.003Z,46.2
2023-03-17T11:54:56.000Z,46.2
2023-03-17T11:56:12.489Z,45.9
2023-03-17T11:57:28.711Z,45.9
2023-03-17T11:58:44.945Z,48.9
2023-03-17T12:00:01.192Z,46.7
2023-03-17T12:01:17.431Z,45.9
2023-03-17T12:02:33.671Z,45.4
2023-03-17T12:03:49.915Z,45.4
2023-03-17T12:05:05.164Z,45.4
2023-03-17T12:06:21.413Z,46.7
2023-03-17T12:07:37.642Z,46.7
2023-03-17T12:08:53.882Z,47.8
2023-03-17T12:10:10.134Z,47.2
2023-03-17T12:11:26.359Z,47.5
2023-03-17T12:12:41.638Z,46.7
2023-03-17T12:13:57.875Z,46.7
2023-03-17T12:15:14.109Z,46.5
2023-03-17T12:16:30.348Z,44.9
2023-03-17T12:17:46.587Z,44.6
2023-03-17T12:19:02.843Z,44.4
2023-03-17T12:20:19.070Z,43.6
2023-03-17T12:21:35.310Z,44.3
2023-03-17T12:22:51.548Z,44.6
2023-03-17T12:24:07.785Z,44.4
2023-03-17T12:25:24.021Z,43.8
2023-03-17T12:26:40.274Z,47.6
2023-03-17T12:27:56.524Z,45.2
2023-03-17T12:29:11.762Z,46.5
2023-03-17T12:30:28.014Z,45.7
2023-03-17T12:31:44.246Z,47
2023-03-17T12:33:00.488Z,45.2
2023-03-17T12:34:16.725Z,44.6
2023-03-17T12:35:32.950Z,45.4
2023-03-17T12:36:49.210Z,55.5
2023-03-17T12:38:05.439Z,51.5
2023-03-17T12:39:21.690Z,45.2
2023-03-17T12:40:37.931Z,46.2
2023-03-17T12:41:54.170Z,46.7
2023-03-17T12:43:10.400Z,45.4
2023-03-17T12:44:26.630Z,45.1
2023-03-17T12:45:41.892Z,45.2
2023-03-17T12:46:58.150Z,44.9
2023-03-17T12:48:14.374Z,45.6
2023-03-17T12:49:30.621Z,47.6
2023-03-17T12:50:46.856Z,45.4
2023-03-17T12:52:03.095Z,46.4
2023-03-17T12:53:19.328Z,45.6
2023-03-17T12:54:35.582Z,45.7
2023-03-17T12:55:51.819Z,47.6
2023-03-17T12:57:08.052Z,48
2023-03-17T12:58:24.291Z,47.3
2023-03-17T12:59:40.527Z,48.3
2023-03-17T13:00:56.771Z,54.4
2023-03-17T13:02:12.017Z,47.2
2023-03-17T13:03:28.282Z,47.6
2023-03-17T13:04:44.505Z,47.3
2023-03-17T13:06:00.746Z,47
2023-03-17T13:07:16.989Z,48.5
2023-03-17T13:08:33.226Z,45.7
2023-03-17T13:09:49.459Z,44.9
2023-03-17T13:11:05.704Z,45.6
2023-03-17T13:12:21.953Z,45.7
2023-03-17T13:13:38.202Z,45.2
2023-03-17T13:14:54.427Z,44.1
2023-03-17T13:16:10.664Z,44.3
2023-03-17T13:17:26.907Z,45.9
2023-03-17T13:18:42.176Z,46.2
2023-03-17T13:19:58.387Z,44.1
2023-03-17T13:21:14.638Z,43.9
2023-03-17T13:22:30.872Z,44.7
2023-03-17T13:23:47.124Z,44.9
2023-03-17T13:25:03.364Z,45.6
2023-03-17T13:26:19.595Z,46.4
2023-03-17T13:27:35.844Z,46
2023-03-17T13:28:52.078Z,46.7
2023-03-17T13:30:08.324Z,46
2023-03-17T13:31:24.567Z,44.1
2023-03-17T13:32:40.801Z,44.7
2023-03-17T13:33:57.040Z,47.6
2023-03-17T13:35:12.282Z,45.4
2023-03-17T13:36:28.532Z,45.2
2023-03-17T13:37:44.772Z,53.9
2023-03-17T13:39:01.029Z,44.9
2023-03-17T13:40:17.254Z,47.6
2023-03-17T13:41:33.498Z,44.9
2023-03-17T13:42:49.729Z,48.6
2023-03-17T13:44:05.958Z,43.8
2023-03-17T13:45:22.201Z,45.7
2023-03-17T13:46:38.455Z,47.5
2023-03-17T13:47:54.687Z,44.3
2023-03-17T13:49:10.939Z,44.1
2023-03-17T13:50:27.161Z,44.7
2023-03-17T13:51:42.431Z,44.6
2023-03-17T13:52:58.663Z,44.4
2023-03-17T13:54:14.919Z,44.4
2023-03-17T13:55:31.139Z,44.7
2023-03-17T13:56:47.385Z,45.9
2023-03-17T13:58:03.621Z,48.1
2023-03-17T13:59:19.875Z,61.5
2023-03-17T14:00:36.114Z,44.9
2023-03-17T14:01:52.333Z,48.8
2023-03-17T14:03:08.597Z,57
2023-03-17T14:04:24.811Z,45.2
2023-03-17T14:05:41.047Z,55.5
2023-03-17T14:06:57.303Z,44.4
2023-03-17T14:08:12.548Z,55.5
2023-03-17T14:09:28.782Z,45.9
2023-03-17T14:10:45.036Z,59.6
2023-03-17T14:12:01.288Z,46.4
2023-03-17T14:13:17.526Z,45.4
2023-03-17T14:14:33.760Z,56
2023-03-17T14:15:50.000Z,44.6
2023-03-17T14:17:06.241Z,45.1
2023-03-17T14:18:22.486Z,53.3
2023-03-17T14:19:38.714Z,45.1
2023-03-17T14:20:54.970Z,46.7
2023-03-17T14:22:11.195Z,45.7
2023-03-17T14:23:27.433Z,44.9
2023-03-17T14:24:42.689Z,44.9
2023-03-17T14:25:58.933Z,48.8
2023-03-17T14:27:15.156Z,45.2
2023-03-17T14:28:31.409Z,44.6
2023-03-17T14:29:47.664Z,45.6
2023-03-17T14:31:03.889Z,45.6
2023-03-17T14:32:20.135Z,45.1
2023-03-17T14:33:36.370Z,45.6
2023-03-17T14:34:52.620Z,45.2
2023-03-17T14:36:08.863Z,47
2023-03-17T14:37:25.096Z,49.4
2023-03-17T14:38:41.312Z,49.9
2023-03-17T14:39:57.555Z,45.1
2023-03-17T14:41:13.815Z,44.3
2023-03-17T14:42:29.066Z,45.2
2023-03-17T14:43:45.290Z,45.1
2023-03-17T14:45:01.545Z,44.7
2023-03-17T14:46:17.781Z,44.6
2023-03-17T14:47:34.000Z,47.3
2023-03-17T14:48:50.255Z,46
2023-03-17T14:50:06.518Z,44.9
2023-03-17T14:51:22.740Z,45.9
2023-03-17T14:52:38.983Z,45.7
2023-03-17T14:53:55.213Z,45.1
2023-03-17T14:55:11.448Z,44.7
2023-03-17T14:56:27.689Z,45.1
2023-03-17T14:57:43.951Z,44.7
2023-03-17T14:58:59.198Z,45.4
2023-03-17T15:00:15.428Z,46
2023-03-17T15:01:31.680Z,43.9
2023-03-17T15:02:47.905Z,44.1
2023-03-17T15:04:04.140Z,44.1
2023-03-17T15:05:20.409Z,45.6
2023-03-17T15:06:36.618Z,45.7
2023-03-17T15:07:52.870Z,44.7
2023-03-17T15:09:09.128Z,44.4
2023-03-17T15:10:25.360Z,44.7
2023-03-17T15:11:41.582Z,44.3
2023-03-17T15:12:57.836Z,44.1
2023-03-17T15:14:14.081Z,45.4
2023-03-17T15:15:29.337Z,45.9
2023-03-17T15:16:45.564Z,43.9
2023-03-17T15:18:01.814Z,45.9
2023-03-17T15:19:18.051Z,45.6
2023-03-17T15:20:34.272Z,46.7
2023-03-17T15:21:50.513Z,44.1
2023-03-17T15:23:06.756Z,44.7
2023-03-17T15:24:22.992Z,47.2
2023-03-17T15:25:39.239Z,44.4
2023-03-17T15:26:55.481Z,48.1
2023-03-17T15:28:11.741Z,46.2
2023-03-17T15:29:27.963Z,46.8
2023-03-17T15:30:44.226Z,46.2
2023-03-17T15:31:59.462Z,46.2
2023-03-17T15:33:15.708Z,47.5
2023-03-17T15:34:31.935Z,51.5
2023-03-17T15:35:48.184Z,47.3
2023-03-17T15:37:04.407Z,49.4
2023-03-17T15:38:20.644Z,46.7
2023-03-17T15:39:36.911Z,45.4
2023-03-17T15:40:53.153Z,46.8
2023-03-17T15:42:09.394Z,51.8
2023-03-17T15:43:25.619Z,46.7
2023-03-17T15:44:41.845Z,46.2
2023-03-17T15:45:58.104Z,48
2023-03-17T15:47:14.339Z,47.2
2023-03-17T15:48:29.596Z,46.8
2023-03-17T15:49:45.823Z,46.2
2023-03-17T15:51:02.065Z,46.4
2023-03-17T15:52:18.316Z,47
2023-03-17T15:53:34.570Z,47.2
2023-03-17T15:56:07.035Z,46.7
2023-03-17T15:57:23.289Z,47.5
2023-03-17T15:58:39.525Z,47.3
2023-03-17T15:59:55.767Z,46.4
2023-03-17T16:01:12.000Z,46.7
2023-03-17T16:02:28.228Z,46.8
2023-03-17T16:03:44.489Z,47.2
2023-03-17T16:04:59.742Z,47.5
2023-03-17T16:06:15.968Z,47.2
2023-03-17T16:07:32.197Z,48.9
2023-03-17T16:08:48.435Z,46.8
2023-03-17T16:10:04.686Z,46.7
2023-03-17T16:11:20.934Z,47
2023-03-17T16:12:37.170Z,47
2023-03-17T16:13:53.421Z,47.2
2023-03-17T16:15:09.660Z,47.6
2023-03-17T16:16:25.893Z,48.6
2023-03-17T16:17:42.133Z,47.3
2023-03-17T16:18:58.355Z,47
2023-03-17T16:20:14.613Z,46.7
2023-03-17T16:21:29.871Z,47.3
2023-03-17T16:22:46.110Z,46.2
2023-03-17T16:24:02.324Z,47.2
2023-03-17T16:25:18.567Z,47.8
2023-03-17T16:26:34.826Z,46.7
2023-03-17T16:27:50.073Z,46.4
2023-03-17T16:29:06.307Z,46.4
2023-03-17T16:30:22.551Z,53.8
2023-03-17T16:31:38.810Z,47.2
2023-03-17T16:32:55.044Z,46.7
2023-03-17T16:34:11.286Z,47.2
2023-03-17T16:35:27.519Z,47.2
2023-03-17T16:36:43.773Z,47
2023-03-17T16:38:00.002Z,49.3
2023-03-17T16:39:16.247Z,48.5
2023-03-17T16:40:32.469Z,46.2
2023-03-17T16:41:48.709Z,45.4
2023-03-17T16:43:04.978Z,47.8
2023-03-17T16:44:20.232Z,48.3
2023-03-17T16:45:36.461Z,47.6
2023-03-17T16:46:52.699Z,47
2023-03-17T16:48:08.930Z,47.3
2023-03-17T16:49:25.181Z,45.6
2023-03-17T16:50:41.415Z,45.6
2023-03-17T16:51:57.663Z,55.9
2023-03-17T16:53:13.901Z,45.6
2023-03-17T16:54:30.118Z,46
2023-03-17T16:55:46.369Z,46.2
2023-03-17T16:57:02.617Z,47
2023-03-17T16:58:18.865Z,45.6
2023-03-17T16:59:35.102Z,47
2023-03-17T17:00:50.348Z,46.7
2023-03-17T17:02:06.576Z,45.4
2023-03-17T17:03:22.852Z,45.1